createdAt,value
2022-09-05T00:02:21.983Z,1.10
2022-09-05T00:06:01.923Z,1.00
2022-09-05T00:09:16.118Z,0.97
2022-09-05T00:12:12.013Z,0.80
2022-09-05T00:15:17.357Z,1.00
2022-09-05T00:24:17.558Z,0.90
2022-09-05T00:24:28.940Z,1.10
2022-09-05T00:25:32.266Z,1.00
2022-09-05T00:28:36.848Z,1.07
2022-09-05T00:31:55.890Z,0.87
2022-09-05T00:35:10.263Z,0.97
2022-09-05T00:38:02.034Z,1.17
2022-09-05T00:40:55.747Z,1.00
2022-09-05T00:44:09.908Z,1.13
2022-09-05T00:47:01.707Z,0.80
2022-09-05T00:49:58.573Z,1.10
2022-09-05T00:53:06.511Z,0.90
2022-09-05T00:56:14.824Z,1.13
2022-09-05T00:59:35.740Z,0.90
2022-09-05T01:02:37.907Z,0.80
2022-09-05T01:05:59.842Z,0.97
2022-09-05T01:09:21.040Z,1.00
2022-09-05T01:12:50.139Z,1.27
2022-09-05T01:16:02.239Z,1.10
2022-09-05T01:18:52.293Z,0.97
2022-09-05T01:21:45.386Z,1.00
2022-09-05T01:24:44.340Z,0.80
2022-09-05T01:29:13.364Z,1.00
2022-09-05T01:31:32.629Z,1.30
2022-09-05T01:34:53.642Z,1.10
2022-09-05T01:37:50.837Z,0.80
2022-09-05T01:41:18.126Z,0.77
2022-09-05T01:44:21.659Z,0.97
2022-09-05T01:47:40.231Z,1.00
2022-09-05T01:50:51.647Z,1.00
2022-09-05T01:54:10.076Z,0.80
2022-09-05T01:57:42.669Z,1.17
2022-09-05T02:00:40.167Z,0.77
2022-09-05T02:03:53.960Z,1.00
2022-09-05T02:06:56.227Z,1.00
2022-09-05T02:10:24.649Z,0.77
2022-09-05T02:13:24.037Z,0.90
2022-09-05T02:16:51.697Z,0.67
2022-09-05T02:19:48.712Z,0.90
2022-09-05T02:22:45.406Z,1.17
2022-09-05T02:26:02.440Z,0.70
2022-09-05T02:29:28.462Z,1.00
2022-09-05T02:32:31.911Z,0.77
2022-09-05T02:35:38.243Z,0.70
2022-09-05T02:42:29.081Z,0.90
2022-09-05T02:45:19.503Z,0.80
2022-09-05T02:45:42.426Z,0.90
2022-09-05T02:48:43.814Z,0.70
2022-09-05T02:57:26.343Z,0.90
2022-09-05T02:57:43.270Z,0.70
2022-09-05T02:58:14.426Z,0.80
2022-09-05T03:01:20.837Z,0.93
2022-09-05T03:04:08.013Z,0.90
2022-09-05T03:07:19.204Z,0.83
2022-09-05T03:10:49.823Z,0.63
2022-09-05T03:14:09.753Z,0.77
2022-09-05T03:17:26.854Z,0.80
2022-09-05T03:20:42.653Z,0.73
2022-09-05T03:23:58.473Z,1.07
2022-09-05T03:27:07.984Z,1.20
2022-09-05T03:30:06.919Z,1.00
2022-09-05T03:33:07.589Z,0.77
2022-09-05T03:36:19.014Z,0.70
2022-09-05T03:39:09.266Z,0.80
2022-09-05T03:42:14.981Z,0.90
2022-09-05T03:45:31.232Z,0.80
2022-09-05T03:48:51.717Z,0.83
2022-09-05T03:57:10.415Z,0.87
2022-09-05T03:57:14.073Z,0.80
2022-09-05T03:59:10.390Z,0.87
2022-09-05T04:02:52.579Z,0.80
2022-09-05T04:08:20.760Z,0.60
2022-09-05T04:08:47.032Z,1.13
2022-09-05T04:11:42.248Z,0.80
2022-09-05T04:15:01.607Z,0.93
2022-09-05T04:18:03.765Z,0.90
2022-09-05T04:21:02.737Z,0.70
2022-09-05T04:24:20.329Z,0.83
2022-09-05T04:27:17.733Z,1.00
2022-09-05T04:30:39.095Z,1.07
2022-09-05T04:34:07.985Z,0.77
2022-09-05T04:36:58.030Z,1.00
2022-09-05T04:39:47.644Z,1.10
2022-09-05T04:42:41.714Z,0.80
2022-09-05T04:45:35.072Z,0.97
2022-09-05T04:48:25.931Z,1.00
2022-09-05T04:51:28.280Z,1.10
2022-09-05T04:54:34.100Z,0.93
2022-09-05T04:57:39.537Z,1.00
2022-09-05T05:05:58.550Z,1.30
2022-09-05T05:06:17.745Z,1.23
2022-09-05T05:07:25.178Z,1.00
2022-09-05T05:13:59.656Z,1.00
2022-09-05T05:18:03.010Z,1.40
2022-09-05T05:18:10.545Z,0.87
2022-09-05T05:20:40.719Z,1.00
2022-09-05T05:23:36.649Z,0.90
2022-09-05T05:26:39.371Z,1.00
2022-09-05T05:29:36.608Z,1.33
2022-09-05T05:32:44.830Z,0.80
2022-09-05T05:35:47.922Z,0.97
2022-09-05T05:38:48.243Z,0.70
2022-09-05T05:41:37.957Z,1.30
2022-09-05T05:44:40.587Z,1.00
2022-09-05T05:47:39.538Z,0.87
2022-09-05T05:50:35.497Z,0.70
2022-09-05T05:53:43.514Z,1.03
2022-09-05T05:56:49.153Z,0.90
2022-09-05T05:59:59.032Z,1.10
2022-09-05T06:03:26.767Z,1.13
2022-09-05T06:06:28.395Z,1.30
2022-09-05T06:14:42.815Z,0.97
2022-09-05T06:14:59.031Z,1.10
2022-09-05T06:16:53.170Z,1.20
2022-09-05T06:20:16.400Z,1.10
2022-09-05T06:22:50.415Z,1.20
2022-09-05T06:26:04.697Z,1.20
2022-09-05T06:29:13.276Z,1.40
2022-09-05T06:32:09.195Z,1.30
2022-09-05T06:35:19.403Z,1.37
2022-09-05T06:38:52.168Z,1.40
2022-09-05T06:42:28.634Z,1.30
2022-09-05T06:45:17.254Z,1.67
2022-09-05T06:48:21.391Z,1.73
2022-09-05T06:52:21.554Z,1.90
2022-09-05T06:55:19.543Z,2.30
2022-09-05T06:58:31.273Z,2.40
2022-09-05T07:01:21.023Z,2.43
2022-09-05T07:05:14.797Z,2.30
2022-09-05T07:07:43.772Z,2.30
2022-09-05T07:11:16.518Z,2.20
2022-09-05T07:14:30.638Z,2.47
2022-09-05T07:17:25.769Z,2.13
2022-09-05T07:20:20.877Z,2.00
2022-09-05T07:24:06.221Z,2.27
2022-09-05T07:26:52.014Z,2.10
2022-09-05T07:29:24.621Z,2.13
2022-09-05T07:31:56.418Z,1.73
2022-09-05T07:34:34.980Z,1.90
2022-09-05T07:37:19.236Z,2.10
2022-09-05T07:39:52.290Z,1.60
2022-09-05T07:42:29.570Z,1.50
2022-09-05T07:45:06.532Z,1.53
2022-09-05T07:47:38.415Z,1.43
2022-09-05T07:55:18.824Z,1.30
2022-09-05T07:56:52.410Z,1.20
2022-09-05T08:00:25.695Z,1.50
2022-09-05T08:03:15.474Z,1.50
2022-09-05T08:06:06.201Z,1.40
2022-09-05T08:09:21.484Z,1.37
2022-09-05T08:12:28.061Z,1.80
2022-09-05T08:15:26.015Z,1.30
2022-09-05T08:18:35.390Z,1.30
2022-09-05T08:21:37.878Z,1.50
2022-09-05T08:24:32.148Z,1.20
2022-09-05T08:27:20.486Z,1.33
2022-09-05T08:30:26.501Z,1.60
2022-09-05T08:33:45.556Z,1.47
2022-09-05T08:36:51.561Z,1.50
2022-09-05T08:39:24.649Z,1.70
2022-09-05T08:43:26.504Z,1.83
2022-09-05T08:46:47.035Z,1.97
2022-09-05T08:49:32.180Z,1.80
2022-09-05T08:52:33.970Z,2.37
2022-09-05T08:55:23.947Z,2.43
2022-09-05T08:58:23.050Z,1.67
2022-09-05T09:01:25.422Z,1.27
2022-09-05T09:04:15.450Z,1.37
2022-09-05T09:08:03.318Z,1.57
2022-09-05T09:11:02.474Z,1.20
2022-09-05T09:14:30.820Z,1.50
2022-09-05T09:17:20.749Z,1.33
2022-09-05T09:20:49.154Z,1.10
2022-09-05T09:23:55.008Z,1.10
2022-09-05T09:26:56.078Z,1.13
2022-09-05T09:29:44.162Z,1.20
2022-09-05T09:32:27.035Z,0.93
2022-09-05T09:35:38.485Z,1.30
2022-09-05T09:38:36.417Z,1.47
2022-09-05T09:41:44.199Z,1.20
2022-09-05T09:45:22.525Z,1.13
2022-09-05T09:48:30.599Z,1.03
2022-09-05T09:51:41.396Z,1.10
2022-09-05T09:54:47.086Z,1.30
2022-09-05T09:58:05.290Z,1.20
2022-09-05T10:01:35.231Z,1.20
2022-09-05T10:10:33.919Z,1.20
2022-09-05T10:10:52.207Z,1.00
2022-09-05T10:11:56.708Z,0.90
2022-09-05T10:15:30.243Z,1.20
2022-09-05T10:18:34.130Z,0.87
2022-09-05T10:25:34.906Z,1.03
2022-09-05T10:28:09.035Z,1.43
2022-09-05T10:33:05.262Z,1.13
2022-09-05T10:35:14.642Z,0.97
2022-09-05T10:37:47.473Z,1.30
2022-09-05T10:41:05.142Z,1.10
2022-09-05T10:43:50.222Z,1.20
2022-09-05T10:47:02.874Z,1.00
2022-09-05T10:49:55.791Z,1.30
2022-09-05T10:53:12.137Z,1.27
2022-09-05T10:56:20.919Z,1.30
2022-09-05T11:02:06.092Z,1.20
2022-09-05T11:02:51.171Z,1.37
2022-09-05T11:05:46.924Z,1.60
2022-09-05T11:08:54.956Z,1.30
2022-09-05T11:11:46.367Z,1.40
2022-09-05T11:14:48.560Z,1.43
2022-09-05T11:17:50.805Z,1.50
2022-09-05T11:20:59.284Z,1.50
2022-09-05T11:24:16.736Z,1.50
2022-09-05T11:27:25.053Z,1.57
2022-09-05T11:30:29.963Z,1.53
2022-09-05T11:39:48.515Z,1.70
2022-09-05T11:40:02.701Z,1.67
2022-09-05T11:40:31.320Z,1.47
2022-09-05T11:43:24.084Z,1.43
2022-09-05T11:46:50.436Z,1.80
2022-09-05T11:49:57.889Z,2.07
2022-09-05T11:53:03.441Z,1.80
2022-09-05T11:56:15.076Z,1.77
2022-09-05T11:59:33.593Z,1.60
2022-09-05T12:02:33.270Z,1.97
2022-09-05T12:06:01.197Z,1.67
2022-09-05T12:09:20.243Z,1.83
2022-09-05T12:12:41.659Z,1.77
2022-09-05T12:19:27.473Z,1.73
2022-09-05T12:22:23.847Z,1.50
2022-09-05T12:27:40.032Z,1.80
2022-09-05T12:29:33.778Z,1.37
2022-09-05T12:33:50.757Z,1.67
2022-09-05T12:36:12.659Z,1.60
2022-09-05T12:40:58.197Z,1.50
2022-09-05T12:41:41.217Z,1.40
2022-09-05T12:42:14.502Z,1.30
2022-09-05T12:45:37.326Z,1.50
2022-09-05T12:48:49.221Z,1.00
2022-09-05T12:51:46.471Z,1.40
2022-09-05T12:54:55.890Z,1.13
2022-09-05T13:02:59.445Z,1.17
2022-09-05T13:03:02.512Z,1.00
2022-09-05T13:04:23.995Z,1.10
2022-09-05T13:07:22.352Z,1.20
2022-09-05T13:14:31.379Z,1.00
2022-09-05T13:14:56.433Z,1.07
2022-09-05T13:16:41.006Z,1.30
2022-09-05T13:19:41.990Z,1.37
2022-09-05T13:22:34.246Z,1.43
2022-09-05T13:25:33.739Z,1.20
2022-09-05T13:28:26.643Z,1.30
2022-09-05T13:37:58.528Z,1.30
2022-09-05T13:38:01.425Z,1.40
2022-09-05T13:38:19.752Z,1.20
2022-09-05T13:41:07.714Z,1.00
2022-09-05T13:44:25.370Z,1.20
2022-09-05T13:47:30.342Z,1.13
2022-09-05T13:50:25.813Z,1.00
2022-09-05T13:52:55.628Z,1.17
2022-09-05T13:55:49.706Z,1.27
2022-09-05T13:58:42.272Z,1.00
2022-09-05T14:02:04.490Z,1.30
2022-09-05T14:05:16.321Z,1.47
2022-09-05T14:08:28.661Z,1.03
2022-09-05T14:11:21.917Z,1.37
2022-09-05T14:14:11.343Z,0.90
2022-09-05T14:16:53.805Z,1.00
2022-09-05T14:19:43.478Z,1.10
2022-09-05T14:22:22.233Z,1.10
2022-09-05T14:24:56.125Z,1.03
2022-09-05T14:27:46.075Z,0.90
2022-09-05T14:34:36.943Z,0.87
2022-09-05T14:37:52.109Z,1.03
2022-09-05T14:38:09.198Z,0.90
2022-09-05T14:40:59.520Z,0.90
2022-09-05T14:43:56.613Z,1.50
2022-09-05T14:47:35.389Z,1.13
2022-09-05T14:50:46.254Z,1.60
2022-09-05T14:56:33.322Z,1.70
2022-09-05T15:02:48.387Z,1.50
2022-09-05T15:02:56.812Z,1.73
2022-09-05T15:05:11.227Z,1.13
2022-09-05T15:07:42.232Z,1.03
2022-09-05T15:12:21.669Z,1.33
2022-09-05T15:13:34.980Z,1.07
2022-09-05T15:16:30.207Z,0.97
2022-09-05T15:19:17.425Z,0.80
2022-09-05T15:22:04.358Z,0.90
2022-09-05T15:24:51.616Z,1.00
2022-09-05T15:27:38.502Z,0.87
2022-09-05T15:30:35.422Z,0.80
2022-09-05T15:33:44.556Z,0.90
2022-09-05T15:36:35.733Z,0.80
2022-09-05T15:39:46.031Z,0.70
2022-09-05T15:42:41.562Z,0.80
2022-09-05T15:45:33.717Z,0.70
2022-09-05T15:48:43.508Z,0.60
2022-09-05T15:51:51.470Z,0.80
2022-09-05T15:54:49.519Z,0.70
2022-09-05T15:57:45.105Z,0.63
2022-09-05T16:00:53.282Z,0.63
2022-09-05T16:03:56.609Z,0.90
2022-09-05T16:10:40.244Z,0.90
2022-09-05T16:10:40.810Z,0.93
2022-09-05T16:13:11.652Z,0.60
2022-09-05T16:21:52.673Z,0.87
2022-09-05T16:23:13.820Z,0.60
2022-09-05T16:23:32.265Z,0.70
2022-09-05T16:25:43.857Z,0.80
2022-09-05T16:28:41.225Z,0.60
2022-09-05T16:31:47.324Z,0.57
2022-09-05T16:34:45.513Z,0.50
2022-09-05T16:37:36.196Z,0.60
2022-09-05T16:40:37.453Z,0.90
2022-09-05T16:43:35.775Z,0.57
2022-09-05T16:46:39.077Z,0.70
2022-09-05T16:49:41.551Z,0.63
2022-09-05T16:52:31.677Z,0.63
2022-09-05T16:55:34.161Z,0.60
2022-09-05T16:58:51.939Z,1.77
2022-09-05T17:01:39.149Z,1.10
2022-09-05T17:04:40.153Z,1.27
2022-09-05T17:07:50.760Z,1.00
2022-09-05T17:10:41.465Z,0.80
2022-09-05T17:13:32.601Z,0.77
2022-09-05T17:16:22.456Z,1.07
2022-09-05T17:19:13.520Z,0.80
2022-09-05T17:25:14.003Z,0.60
2022-09-05T17:29:17.373Z,0.80
2022-09-05T17:29:42.079Z,0.63
2022-09-05T17:32:18.902Z,0.80
2022-09-05T17:35:17.145Z,0.93
2022-09-05T17:38:30.304Z,0.80
2022-09-05T17:41:20.470Z,0.50
2022-09-05T17:44:39.141Z,0.63
2022-09-05T17:47:47.125Z,0.60
2022-09-05T17:50:34.226Z,1.10
2022-09-05T17:53:25.769Z,0.80
2022-09-05T17:56:14.301Z,0.77
2022-09-05T17:59:35.499Z,0.63
2022-09-05T18:02:22.372Z,0.70
2022-09-05T18:05:11.886Z,0.70
2022-09-05T18:08:01.572Z,0.80
2022-09-05T18:11:25.308Z,0.80
2022-09-05T18:14:25.281Z,0.80
2022-09-05T18:17:37.331Z,1.00
2022-09-05T18:20:33.223Z,0.80
2022-09-05T18:23:39.685Z,0.80
2022-09-05T18:26:38.517Z,0.80
2022-09-05T18:29:58.668Z,1.00
2022-09-05T18:33:53.573Z,0.90
2022-09-05T18:36:19.684Z,0.80
2022-09-05T18:39:44.206Z,1.40
2022-09-05T18:42:40.676Z,0.80
2022-09-05T18:45:35.906Z,0.83
2022-09-05T18:48:29.922Z,1.17
2022-09-05T18:51:17.895Z,1.10
2022-09-05T18:54:10.523Z,0.90
2022-09-05T18:57:27.331Z,0.90
2022-09-05T19:00:25.037Z,1.03
2022-09-05T19:03:44.931Z,0.80
2022-09-05T19:06:38.815Z,0.90
2022-09-05T19:09:32.981Z,0.90
2022-09-05T19:12:34.984Z,0.80
2022-09-05T19:15:50.504Z,0.87
2022-09-05T19:18:42.757Z,1.03
2022-09-05T19:21:33.669Z,1.03
2022-09-05T19:24:30.427Z,1.30
2022-09-05T19:32:01.113Z,1.07
2022-09-05T19:36:54.025Z,1.43
2022-09-05T19:36:57.700Z,1.20
2022-09-05T19:37:38.728Z,1.00
2022-09-05T19:47:33.905Z,0.90
2022-09-05T19:47:36.395Z,1.10
2022-09-05T19:47:40.606Z,1.17
2022-09-05T19:49:55.994Z,1.30
2022-09-05T19:52:42.846Z,1.17
2022-09-05T19:55:45.645Z,1.50
2022-09-05T19:58:38.996Z,1.30
2022-09-05T20:01:29.939Z,1.30
2022-09-05T20:04:16.919Z,1.20
2022-09-05T20:07:05.909Z,1.30
2022-09-05T20:10:02.894Z,0.83
2022-09-05T20:12:52.996Z,1.30
2022-09-05T20:15:46.551Z,1.20
2022-09-05T20:18:54.262Z,1.00
2022-09-05T20:21:48.381Z,1.07
2022-09-05T20:24:36.787Z,1.00
2022-09-05T20:27:27.434Z,1.00
2022-09-05T20:30:28.753Z,1.30
2022-09-05T20:33:35.449Z,0.83
2022-09-05T20:43:09.906Z,1.30
2022-09-05T20:43:20.297Z,1.00
2022-09-05T20:43:32.631Z,0.90
2022-09-05T20:47:43.585Z,0.80
2022-09-05T20:54:06.191Z,1.53
2022-09-05T20:54:19.754Z,1.00
2022-09-05T20:55:45.873Z,1.07
2022-09-05T20:58:44.636Z,0.90
2022-09-05T21:01:36.817Z,1.70
2022-09-05T21:04:25.764Z,1.13
2022-09-05T21:07:12.761Z,1.10
2022-09-05T21:10:55.384Z,1.20
2022-09-05T21:13:52.713Z,1.00
2022-09-05T21:16:46.757Z,0.80
2022-09-05T21:19:54.088Z,0.90
2022-09-05T21:22:43.476Z,1.10
2022-09-05T21:25:44.355Z,1.10
2022-09-05T21:28:52.522Z,1.27
2022-09-05T21:31:39.667Z,1.00
2022-09-05T21:34:53.746Z,1.00
2022-09-05T21:37:40.832Z,0.93
2022-09-05T21:40:28.572Z,0.90
2022-09-05T21:46:05.944Z,1.27
2022-09-05T21:47:41.438Z,1.20
2022-09-05T21:48:35.383Z,1.07
2022-09-05T21:51:13.485Z,1.10
2022-09-05T21:58:05.865Z,1.30
2022-09-05T21:59:24.823Z,0.87
2022-09-05T21:59:49.706Z,1.00
2022-09-05T22:02:17.824Z,1.20
2022-09-05T22:04:47.339Z,1.10
2022-09-05T22:07:20.346Z,1.20
2022-09-05T22:10:03.328Z,1.10
2022-09-05T22:12:38.947Z,0.90
2022-09-05T22:15:28.129Z,1.03
2022-09-05T22:18:16.766Z,1.00
2022-09-05T22:20:53.532Z,1.10
2022-09-05T22:23:37.145Z,1.10
2022-09-05T22:26:08.114Z,1.03
2022-09-05T22:28:38.504Z,1.03
2022-09-05T22:31:07.777Z,1.10
2022-09-05T22:33:36.224Z,1.00
2022-09-05T22:36:04.759Z,0.90
2022-09-05T22:38:33.338Z,1.17
2022-09-05T22:41:00.473Z,1.17
2022-09-05T22:43:27.557Z,0.90
2022-09-05T22:45:56.321Z,1.23
2022-09-05T22:48:23.705Z,1.00
2022-09-05T22:50:51.035Z,0.90
2022-09-05T22:53:18.197Z,1.00
2022-09-05T22:55:45.243Z,0.87
2022-09-05T22:58:14.435Z,1.00
2022-09-05T23:00:41.923Z,1.07
2022-09-05T23:03:08.941Z,0.90
2022-09-05T23:05:35.898Z,0.90
2022-09-05T23:08:04.881Z,0.70
2022-09-05T23:10:32.417Z,0.77
2022-09-05T23:13:06.530Z,0.87
2022-09-05T23:15:34.686Z,0.50
2022-09-05T23:18:03.110Z,0.90
2022-09-05T23:20:32.108Z,0.80
2022-09-05T23:23:03.589Z,0.63
2022-09-05T23:25:30.846Z,0.60
2022-09-05T23:27:57.800Z,0.80
2022-09-05T23:30:24.889Z,0.77
2022-09-05T23:32:52.737Z,0.40
2022-09-05T23:35:19.994Z,0.60
2022-09-05T23:37:48.333Z,0.50
2022-09-05T23:40:17.942Z,0.77
2022-09-05T23:42:58.489Z,0.60
2022-09-05T23:45:46.876Z,0.70
2022-09-05T23:48:34.197Z,0.70
2022-09-05T23:51:29.496Z,0.73
2022-09-05T23:54:16.471Z,0.60
2022-09-05T23:57:03.447Z,0.80
2022-09-05T23:59:50.853Z,0.57
